createdAt,value
2018-12-01T07:16:35.165Z,35.77
2018-12-01T07:19:18.914Z,37.30
2018-12-01T07:21:47.610Z,36.47
2018-12-01T07:24:15.994Z,37.10
2018-12-01T07:26:44.747Z,37.40
2018-12-01T07:29:13.324Z,39.30
2018-12-01T07:31:41.842Z,39.57
2018-12-01T07:34:10.402Z,47.57
2018-12-01T07:36:39.690Z,43.10
2018-12-01T07:39:09.174Z,43.23
2018-12-01T07:41:37.850Z,42.00
2018-12-01T07:44:06.362Z,41.83
2018-12-01T07:46:34.809Z,42.33
2018-12-01T07:49:04.779Z,41.80
2018-12-01T07:51:33.248Z,42.73
2018-12-01T07:54:02.003Z,40.90
2018-12-01T07:56:30.498Z,41.77
2018-12-01T07:58:59.023Z,41.50
2018-12-01T08:01:27.366Z,40.67
2018-12-01T08:03:56.209Z,40.93
2018-12-01T08:06:24.719Z,41.33
2018-12-01T08:08:53.235Z,40.50
2018-12-01T08:11:21.773Z,41.83
2018-12-01T08:13:50.262Z,43.73
2018-12-01T08:16:18.795Z,40.97
2018-12-01T08:18:47.457Z,40.63
2018-12-01T08:21:16.035Z,39.23
2018-12-01T08:23:44.617Z,39.07
2018-12-01T08:26:13.615Z,40.73
2018-12-01T08:28:42.418Z,41.60
2018-12-01T08:31:11.200Z,38.07
2018-12-01T08:33:39.737Z,39.57
2018-12-01T08:36:08.287Z,37.60
2018-12-01T08:38:36.828Z,40.00
2018-12-01T08:41:05.632Z,37.20
2018-12-01T08:43:34.094Z,35.93
2018-12-01T08:46:02.506Z,35.63
2018-12-01T08:48:31.179Z,42.03
2018-12-01T08:50:59.744Z,43.10
2018-12-01T08:53:28.349Z,48.70
2018-12-01T08:55:56.851Z,33.87
2018-12-01T08:58:25.590Z,30.47
2018-12-01T09:00:54.057Z,31.13
2018-12-01T09:03:23.471Z,30.33
2018-12-01T09:05:52.752Z,29.60
2018-12-01T09:08:21.258Z,28.47
2018-12-01T09:10:49.651Z,27.87
2018-12-01T09:13:18.220Z,28.60
2018-12-01T09:15:46.627Z,28.93
2018-12-01T09:18:16.016Z,30.33
2018-12-01T09:20:44.542Z,28.20
2018-12-01T09:23:13.088Z,29.10
2018-12-01T09:25:42.787Z,30.67
2018-12-01T09:28:11.466Z,31.73
2018-12-01T09:30:41.434Z,33.23
2018-12-01T09:33:10.020Z,30.87
2018-12-01T09:35:38.978Z,33.00
2018-12-01T09:38:07.511Z,33.13
2018-12-01T09:40:36.258Z,33.20
2018-12-01T09:43:04.907Z,34.13
2018-12-01T09:45:48.029Z,39.30
2018-12-01T09:48:16.550Z,36.80
2018-12-01T09:50:45.287Z,39.80
2018-12-01T09:53:13.669Z,44.80
2018-12-01T09:55:43.041Z,42.37
2018-12-01T09:58:11.521Z,45.37
2018-12-01T10:00:58.823Z,45.40
2018-12-01T10:03:28.008Z,49.03
2018-12-01T10:05:56.451Z,49.27
2018-12-01T10:08:25.050Z,51.60
2018-12-01T10:10:53.832Z,50.73
2018-12-01T10:13:22.443Z,51.17
2018-12-01T10:15:50.927Z,50.07
2018-12-01T10:18:19.525Z,52.40
2018-12-01T10:20:48.206Z,53.37
2018-12-01T10:23:16.667Z,51.60
2018-12-01T10:25:45.133Z,52.77
2018-12-01T10:28:13.598Z,53.00
2018-12-01T10:30:41.979Z,52.47
2018-12-01T10:33:10.592Z,51.43
2018-12-01T10:35:40.021Z,53.37
2018-12-01T10:38:15.203Z,52.10
2018-12-01T10:40:43.722Z,54.30
2018-12-01T10:43:12.156Z,52.10
2018-12-01T10:45:40.580Z,53.50
2018-12-01T10:48:09.759Z,52.60
2018-12-01T10:50:38.499Z,47.13
2018-12-01T10:53:07.558Z,47.23
2018-12-01T10:55:36.467Z,45.70
2018-12-01T10:58:08.324Z,48.37
2018-12-01T11:00:42.126Z,47.67
2018-12-01T11:03:15.791Z,43.40
2018-12-01T11:05:45.498Z,40.63
2018-12-01T11:08:15.053Z,37.43
2018-12-01T11:10:43.960Z,34.87
2018-12-01T11:13:13.476Z,35.20
2018-12-01T11:15:41.877Z,30.23
2018-12-01T11:18:10.382Z,29.93
2018-12-01T11:20:39.057Z,30.87
2018-12-01T11:23:07.680Z,32.40
2018-12-01T11:25:36.133Z,30.80
2018-12-01T11:28:04.879Z,31.43
2018-12-01T11:30:33.522Z,31.60
2018-12-01T11:33:02.242Z,30.77
2018-12-01T11:35:31.044Z,31.20
2018-12-01T11:37:59.549Z,27.50
2018-12-01T11:40:30.250Z,27.53
2018-12-01T11:42:58.926Z,25.90
2018-12-01T11:45:28.682Z,26.87
2018-12-01T11:47:57.122Z,26.03
2018-12-01T11:50:26.431Z,26.67
2018-12-01T11:52:54.879Z,29.00
2018-12-01T11:55:24.589Z,27.43
2018-12-01T11:57:54.038Z,26.10
2018-12-01T12:00:24.846Z,27.67
2018-12-01T12:02:53.409Z,26.43
2018-12-01T12:05:21.922Z,27.73
2018-12-01T12:08:28.203Z,27.93
2018-12-01T12:10:57.238Z,28.13
2018-12-01T12:13:28.989Z,28.87
2018-12-01T12:15:57.735Z,26.30
2018-12-01T12:18:26.182Z,26.83
2018-12-01T12:20:54.763Z,27.67
2018-12-01T12:23:23.193Z,29.03
2018-12-01T12:25:51.613Z,31.07
2018-12-01T12:28:21.021Z,30.70
2018-12-01T12:30:49.778Z,30.13
2018-12-01T12:33:18.122Z,26.73
2018-12-01T12:35:47.893Z,28.07
2018-12-01T12:38:17.115Z,29.67
2018-12-01T12:40:46.501Z,27.73
2018-12-01T12:43:14.920Z,29.77
2018-12-01T12:45:43.466Z,32.03
2018-12-01T12:48:11.933Z,32.20
2018-12-01T12:50:40.402Z,29.87
2018-12-01T12:53:08.879Z,33.37
2018-12-01T12:55:37.446Z,33.27
2018-12-01T12:58:06.749Z,33.17
2018-12-01T13:00:36.499Z,31.30
2018-12-01T13:03:09.174Z,28.27
2018-12-01T13:05:40.865Z,28.23
2018-12-01T13:08:10.166Z,30.33
2018-12-01T13:10:39.208Z,29.33
2018-12-01T13:13:07.889Z,30.33
2018-12-01T13:15:38.332Z,31.83
2018-12-01T13:18:13.195Z,33.13
2018-12-01T13:20:48.692Z,30.90
2018-12-01T13:23:18.198Z,32.30
2018-12-01T13:25:47.237Z,31.10
2018-12-01T13:28:20.175Z,32.03
2018-12-01T13:30:51.328Z,31.87
2018-12-01T13:33:19.937Z,31.07
2018-12-01T13:35:48.664Z,31.57
2018-12-01T13:38:17.349Z,31.83
2018-12-01T13:40:46.618Z,34.50
2018-12-01T13:43:15.226Z,37.83
2018-12-01T13:45:44.173Z,37.70
2018-12-01T13:48:13.457Z,37.70
2018-12-01T13:50:41.950Z,38.47
2018-12-01T13:53:12.522Z,40.23
2018-12-01T13:55:41.012Z,40.83
2018-12-01T13:58:09.506Z,37.83
2018-12-01T14:00:38.994Z,36.67
2018-12-01T14:03:08.849Z,36.50
2018-12-01T14:05:37.554Z,37.83
2018-12-01T14:08:06.778Z,36.70
2018-12-01T14:10:36.573Z,32.87
2018-12-01T14:13:08.276Z,39.57
2018-12-01T14:15:36.820Z,38.27
2018-12-01T14:18:06.091Z,38.00
2018-12-01T14:20:35.023Z,36.77
2018-12-01T14:23:04.183Z,35.30
2018-12-01T14:25:32.778Z,33.60
2018-12-01T14:28:03.696Z,34.27
2018-12-01T14:30:32.261Z,38.43
2018-12-01T14:33:00.766Z,34.30
2018-12-01T14:35:33.535Z,36.30
2018-12-01T14:38:06.849Z,52.27
2018-12-01T14:40:35.471Z,39.47
2018-12-01T14:43:04.024Z,38.10
2018-12-01T14:45:32.604Z,41.30
2018-12-01T14:48:01.104Z,44.57
2018-12-01T14:50:29.839Z,42.23
2018-12-01T14:52:58.259Z,45.83
2018-12-01T14:55:26.608Z,39.00
2018-12-01T14:57:55.053Z,51.37
2018-12-01T15:00:24.464Z,43.87
2018-12-01T15:02:55.046Z,44.40
2018-12-01T15:05:24.026Z,43.13
2018-12-01T15:07:52.486Z,43.70
2018-12-01T15:10:24.989Z,38.17
2018-12-01T15:12:53.604Z,40.30
2018-12-01T15:15:27.164Z,42.27
2018-12-01T15:17:55.657Z,43.40
2018-12-01T15:20:26.137Z,42.10
2018-12-01T15:22:56.363Z,42.60
2018-12-01T15:25:25.954Z,42.50
2018-12-01T15:27:54.572Z,39.13
2018-12-01T15:30:23.936Z,41.20
2018-12-01T15:32:55.956Z,46.33
2018-12-01T15:35:24.473Z,47.27
2018-12-01T15:37:53.045Z,47.23
2018-12-01T15:40:22.242Z,53.07
2018-12-01T15:42:50.798Z,48.70
2018-12-01T15:45:20.579Z,51.43
2018-12-01T15:47:49.035Z,49.73
2018-12-01T15:50:19.264Z,48.83
2018-12-01T15:52:50.116Z,45.93
2018-12-01T15:55:18.586Z,49.40
2018-12-01T15:57:47.922Z,49.23
2018-12-01T16:00:19.297Z,46.93
2018-12-01T16:02:47.730Z,49.73
2018-12-01T16:05:17.301Z,50.10
2018-12-01T16:07:45.917Z,47.53
2018-12-01T16:10:15.418Z,45.33
2018-12-01T16:12:45.861Z,45.37
2018-12-01T16:15:18.255Z,47.07
2018-12-01T16:17:47.044Z,46.90
2018-12-01T16:20:15.771Z,45.90
2018-12-01T16:22:44.154Z,47.87
2018-12-01T16:25:15.066Z,45.63
2018-12-01T16:27:44.459Z,43.97
2018-12-01T16:30:21.141Z,44.53
2018-12-01T16:32:51.152Z,47.17
2018-12-01T16:35:19.623Z,45.90
2018-12-01T16:37:48.327Z,39.97
2018-12-01T16:40:20.201Z,42.13
2018-12-01T16:42:48.889Z,42.77
2018-12-01T16:45:18.449Z,45.30
2018-12-01T16:47:47.614Z,45.67
2018-12-01T16:50:16.385Z,41.70
2018-12-01T16:52:45.703Z,48.43
2018-12-01T16:55:17.255Z,45.67
2018-12-01T16:57:46.250Z,46.47
2018-12-01T17:00:20.414Z,48.27
2018-12-01T17:02:53.388Z,48.03
2018-12-01T17:05:22.990Z,45.50
2018-12-01T17:07:51.533Z,46.23
2018-12-01T17:10:20.997Z,43.90
2018-12-01T17:12:58.399Z,46.27
2018-12-01T17:15:25.932Z,46.67
2018-12-01T17:17:54.339Z,44.33
2018-12-01T17:20:23.015Z,46.20
2018-12-01T17:22:57.743Z,46.70
2018-12-01T17:25:26.538Z,45.40
2018-12-01T17:27:56.309Z,45.30
2018-12-01T17:30:27.928Z,41.90
2018-12-01T17:32:57.564Z,47.30
2018-12-01T17:35:27.822Z,45.57
2018-12-01T17:38:00.442Z,45.10
2018-12-01T17:40:33.242Z,51.13
2018-12-01T17:43:01.778Z,45.37
2018-12-01T17:45:30.195Z,45.93
2018-12-01T17:47:59.219Z,47.23
2018-12-01T17:50:27.618Z,46.50
2018-12-01T17:52:56.986Z,48.63
2018-12-01T17:55:27.056Z,50.13
2018-12-01T17:57:55.728Z,50.83
2018-12-01T18:00:25.685Z,46.73
2018-12-01T18:02:56.938Z,46.10
2018-12-01T18:05:40.454Z,45.27
2018-12-01T18:08:13.309Z,48.93
2018-12-01T18:10:41.779Z,47.83
2018-12-01T18:13:10.293Z,45.30
2018-12-01T18:15:38.738Z,44.13
2018-12-01T18:18:07.332Z,48.00
2018-12-01T18:20:35.789Z,48.33
2018-12-01T18:23:04.288Z,54.10
2018-12-01T18:25:36.647Z,54.40
2018-12-01T18:28:13.565Z,48.93
2018-12-01T18:30:42.212Z,51.33
2018-12-01T18:33:13.304Z,47.50
2018-12-01T18:35:42.257Z,48.60
2018-12-01T18:38:11.423Z,51.27
2018-12-01T18:40:39.976Z,56.20
2018-12-01T18:43:09.199Z,48.73
2018-12-01T18:45:39.244Z,46.23
2018-12-01T18:48:07.687Z,47.17
2018-12-01T18:50:36.471Z,44.43
2018-12-01T18:53:07.636Z,44.50
2018-12-01T18:55:37.484Z,46.67
2018-12-01T18:58:07.844Z,44.60
2018-12-01T19:00:48.101Z,48.13
2018-12-01T19:03:16.857Z,42.67
2018-12-01T19:05:45.292Z,45.80
2018-12-01T19:08:13.680Z,50.93
2018-12-01T19:10:42.089Z,45.07
2018-12-01T19:13:10.670Z,49.43
2018-12-01T19:15:39.142Z,52.70
2018-12-01T19:18:08.273Z,52.37
2018-12-01T19:20:37.105Z,53.40
2018-12-01T19:23:06.874Z,50.93
2018-12-01T19:25:35.321Z,53.00
2018-12-01T19:28:03.785Z,51.40
2018-12-01T19:30:32.258Z,51.83
2018-12-01T19:33:03.698Z,52.27
2018-12-01T19:35:32.058Z,48.77
2018-12-01T19:38:00.558Z,48.93
2018-12-01T19:40:31.237Z,47.97
2018-12-01T19:43:00.707Z,47.50
2018-12-01T19:45:29.183Z,45.73
2018-12-01T19:47:57.829Z,47.47
2018-12-01T19:50:27.622Z,53.17
2018-12-01T19:52:56.010Z,50.73
2018-12-01T19:55:25.745Z,49.03
2018-12-01T19:57:54.204Z,49.03
2018-12-01T20:00:29.052Z,50.07
2018-12-01T20:02:59.295Z,47.97
2018-12-01T20:05:27.707Z,47.30
2018-12-01T20:07:56.210Z,45.77
2018-12-01T20:10:32.295Z,46.97
2018-12-01T20:13:03.786Z,44.90
2018-12-01T20:15:36.339Z,43.63
2018-12-01T20:18:08.762Z,41.63
2018-12-01T20:20:37.191Z,43.33
2018-12-01T20:23:06.127Z,45.90
2018-12-01T20:25:34.564Z,44.40
2018-12-01T20:28:03.983Z,41.77
2018-12-01T20:30:32.467Z,41.20
2018-12-01T20:33:00.965Z,46.50
2018-12-01T20:35:39.780Z,44.97
2018-12-01T20:38:13.097Z,50.00
2018-12-01T20:40:41.615Z,50.70
2018-12-01T20:43:10.106Z,50.77
2018-12-01T20:45:38.578Z,54.37
2018-12-01T20:48:07.516Z,57.77
2018-12-01T20:50:36.092Z,54.83
2018-12-01T20:53:04.571Z,54.77
2018-12-01T20:55:33.072Z,49.80
2018-12-01T20:58:03.070Z,51.93
2018-12-01T21:00:31.550Z,50.97
2018-12-01T21:03:00.064Z,50.33
2018-12-01T21:05:28.546Z,49.43
2018-12-01T21:08:02.043Z,46.97
2018-12-01T21:10:33.933Z,45.93
2018-12-01T21:13:03.214Z,43.87
2018-12-01T21:15:31.647Z,44.57
2018-12-01T21:18:00.120Z,44.90
2018-12-01T21:20:28.611Z,42.07
2018-12-01T21:22:57.174Z,44.57
2018-12-01T21:25:27.102Z,43.97
2018-12-01T21:27:57.206Z,45.57
2018-12-01T21:30:26.921Z,45.00
2018-12-01T21:33:14.929Z,44.57
2018-12-01T21:35:43.430Z,43.20
2018-12-01T21:38:13.428Z,43.57
2018-12-01T21:40:42.641Z,43.90
2018-12-01T21:43:12.014Z,41.70
2018-12-01T21:45:40.568Z,40.40
2018-12-01T21:48:10.608Z,41.90
2018-12-01T21:50:40.083Z,42.47
2018-12-01T21:53:14.782Z,41.33
2018-12-01T21:55:43.254Z,42.13
2018-12-01T21:58:11.832Z,42.67
2018-12-01T22:00:42.801Z,42.70
2018-12-01T22:03:13.037Z,43.90
2018-12-01T22:05:43.034Z,45.67
2018-12-01T22:08:13.333Z,43.60
2018-12-01T22:10:41.974Z,45.73
2018-12-01T22:13:10.461Z,43.93
2018-12-01T22:15:38.999Z,46.10
2018-12-01T22:18:07.436Z,46.53
2018-12-01T22:20:35.818Z,43.20
2018-12-01T22:23:04.402Z,43.33
2018-12-01T22:25:32.873Z,40.17
2018-12-01T22:28:01.401Z,43.10
2018-12-01T22:30:29.894Z,40.27
2018-12-01T22:32:59.507Z,42.07
2018-12-01T22:35:29.183Z,40.80
2018-12-01T22:37:58.542Z,40.40
2018-12-01T22:40:34.094Z,37.57
2018-12-01T22:43:05.976Z,37.53
2018-12-01T22:45:34.476Z,34.87
2018-12-01T22:48:03.946Z,33.23
2018-12-01T22:50:32.343Z,33.27
2018-12-01T22:53:00.908Z,36.30
2018-12-01T22:55:31.844Z,33.50
2018-12-01T22:58:02.582Z,32.37
2018-12-01T23:00:40.635Z,33.80
2018-12-01T23:03:09.650Z,31.13
2018-12-01T23:05:38.166Z,30.77
2018-12-01T23:08:08.364Z,30.67
2018-12-01T23:10:36.858Z,30.87
2018-12-01T23:13:06.099Z,28.17
2018-12-01T23:15:34.632Z,28.47
2018-12-01T23:18:03.162Z,29.33
2018-12-01T23:20:31.602Z,28.70
2018-12-01T23:23:00.111Z,30.47
2018-12-01T23:25:28.702Z,26.87
2018-12-01T23:28:00.207Z,29.73
2018-12-01T23:30:29.745Z,26.97
2018-12-01T23:33:01.028Z,27.47
2018-12-01T23:35:30.278Z,30.37
2018-12-01T23:37:59.034Z,30.33
2018-12-01T23:40:28.127Z,30.10
2018-12-01T23:42:55.973Z,28.63
2018-12-01T23:45:24.405Z,30.70
2018-12-01T23:47:53.214Z,31.17
2018-12-01T23:50:28.385Z,30.00
2018-12-01T23:53:10.222Z,32.10
2018-12-01T23:55:38.629Z,32.37
2018-12-01T23:58:07.115Z,30.23
